3B5 weather

Twitchell Airport
Turner, Maine, United States

Public forecast

Using degrees Fahrenheit for public forecast. Weather courtesy of forecast.io.

Closest aviation weather report (METAR) to Twitchell Airport

Closest report is Auburn Lewiston Municipal Airport, 8.7 nm (16.1 km) SSW. Retrieved 2019/10/17 23:56 UTC (19 minutes ago):

KLEW 172356Z AUTO 33008KT 10SM -RA BKN036 BKN043 OVC060 08/08 A2911 RMK AO2 RAB2258E11B44 SLP863 P0000 60001 T00830078 10094 20083 53046

Closest aviation forecast (TAF) to Twitchell Airport

Closest forecast is Augusta State Airport, 20.3 nm (37.7 km) ENE. Retrieved 2019-10-18 00:22 UTC (0 seconds ago):

TAF KAUG 172320Z 1800/1824 01007KT P6SM VCSH BKN040 FM180100 34007KT P6SM BKN060 FM180400 31008KT P6SM BKN040 FM181200 30009KT P6SM SCT040 FM181300 31009KT P6SM BKN040